Time;durP1;ratioP1;P1;durP2;ratioP2;P2;SDS_P1;SDS_P2;PMS_P1;PMS_P2;Temp;Humidity;BMP_temperature;BMP_pressure;BME280_temperature;BME280_humidity;BME280_pressure;Samples;Min_cycle;Max_cycle;Signal;HPM_P1;HPM_P2
2021/03/11 00:00:23;;;;;;;30.03;20.67;;;11.60;40.10;;;;;;5029093;28;20033;-53
2021/03/11 00:02:49;;;;;;;30.73;20.13;;;11.60;40.50;;;;;;5056513;28;20040;-49
2021/03/11 00:05:16;;;;;;;31.90;21.27;;;11.70;40.30;;;;;;5057887;28;20040;-50
2021/03/11 00:07:41;;;;;;;36.80;21.17;;;11.60;40.80;;;;;;5078474;28;20458;-50
2021/03/11 00:10:11;;;;;;;34.42;21.75;;;11.70;40.60;;;;;;5055817;28;20067;-49
2021/03/11 00:12:39;;;;;;;35.67;24.67;;;11.70;40.90;;;;;;5060345;28;20037;-50
2021/03/11 00:15:11;;;;;;;35.50;24.23;;;11.70;41.00;;;;;;5053604;28;20080;-52
2021/03/11 00:17:37;;;;;;;39.63;25.95;;;11.70;41.40;;;;;;5058756;28;20068;-49
2021/03/11 00:20:09;;;;;;;40.07;25.63;;;11.60;41.00;;;;;;5050491;28;21168;-54
2021/03/11 00:22:35;;;;;;;46.00;27.85;;;11.60;41.40;;;;;;5062097;28;20398;-51
2021/03/11 00:25:02;;;;;;;39.35;26.77;;;11.60;40.90;;;;;;5059000;28;20040;-49
2021/03/11 00:27:28;;;;;;;42.13;27.95;;;11.60;41.20;;;;;;5056815;28;20086;-49
2021/03/11 00:29:54;;;;;;;42.55;27.90;;;11.60;41.00;;;;;;5059361;28;20048;-49
2021/03/11 00:32:19;;;;;;;41.60;28.75;;;11.60;40.90;;;;;;5052016;28;20118;-48
2021/03/11 00:34:45;;;;;;;38.83;27.40;;;11.60;41.60;;;;;;5057295;28;20398;-50
2021/03/11 00:37:10;;;;;;;40.47;28.05;;;11.60;41.20;;;;;;5065695;28;20036;-51
2021/03/11 00:39:36;;;;;;;44.33;29.30;;;11.60;41.10;;;;;;5074417;28;20102;-54
2021/03/11 00:42:02;;;;;;;43.40;29.50;;;11.60;40.90;;;;;;5053219;28;20444;-53
2021/03/11 00:44:27;;;;;;;42.63;27.73;;;11.60;41.10;;;;;;5067831;28;20486;-51
2021/03/11 00:46:53;;;;;;;43.60;29.77;;;11.50;41.00;;;;;;5061296;28;20041;-50
2021/03/11 00:49:19;;;;;;;46.45;29.13;;;11.50;41.10;;;;;;5065828;28;20158;-50
2021/03/11 00:51:44;;;;;;;45.10;29.92;;;11.60;41.10;;;;;;5060102;28;20555;-51
2021/03/11 00:54:10;;;;;;;44.58;28.23;;;11.60;41.00;;;;;;5062450;28;20049;-51
2021/03/11 00:56:36;;;;;;;39.67;27.55;;;11.60;41.40;;;;;;5060281;28;20045;-55
2021/03/11 00:59:01;;;;;;;43.67;29.13;;;11.60;41.50;;;;;;5063301;28;20063;-52
2021/03/11 01:01:27;;;;;;;42.80;29.40;;;11.60;41.50;;;;;;5081157;28;20040;-54
2021/03/11 01:03:52;;;;;;;43.33;30.67;;;11.60;42.00;;;;;;5066567;28;20036;-53
2021/03/11 01:06:18;;;;;;;41.85;29.13;;;11.50;42.20;;;;;;5064084;28;20040;-49
2021/03/11 01:08:56;;;;;;;42.45;28.63;;;11.50;42.50;;;;;;5064998;28;20547;-53
2021/03/11 01:11:22;;;;;;;49.90;30.42;;;11.50;42.70;;;;;;5040632;28;20029;-52
2021/03/11 01:13:47;;;;;;;40.40;28.83;;;11.50;42.80;;;;;;5060681;28;20044;-49
2021/03/11 01:16:13;;;;;;;44.77;31.53;;;11.50;42.30;;;;;;5063461;28;20116;-49
2021/03/11 01:18:39;;;;;;;44.27;30.73;;;11.50;42.20;;;;;;5063009;28;20123;-54
2021/03/11 01:21:10;;;;;;;44.37;32.03;;;11.50;42.20;;;;;;5058918;28;20049;-54
2021/03/11 01:23:36;;;;;;;45.73;31.63;;;11.50;42.50;;;;;;5066925;28;21097;-53
2021/03/11 01:26:02;;;;;;;48.90;31.55;;;11.60;42.40;;;;;;5064137;28;20117;-51
2021/03/11 01:28:28;;;;;;;42.40;31.13;;;11.50;42.50;;;;;;5056926;28;20060;-50
2021/03/11 01:30:53;;;;;;;48.50;32.37;;;11.50;42.60;;;;;;5065780;28;20036;-55
2021/03/11 01:33:19;;;;;;;45.30;32.00;;;11.50;42.70;;;;;;5057949;28;20428;-49
2021/03/11 01:35:44;;;;;;;44.13;31.98;;;11.50;42.70;;;;;;5069068;28;20049;-48
2021/03/11 01:38:10;;;;;;;44.93;32.57;;;11.50;42.70;;;;;;5062055;28;20065;-51
2021/03/11 01:40:35;;;;;;;46.25;33.17;;;11.50;42.80;;;;;;5065705;28;20041;-51
2021/03/11 01:43:02;;;;;;;52.17;32.73;;;11.50;42.80;;;;;;5060240;28;20037;-49
2021/03/11 01:45:28;;;;;;;47.43;32.67;;;11.50;42.80;;;;;;5063932;28;20119;-49
2021/03/11 01:47:53;;;;;;;49.53;33.10;;;11.50;43.10;;;;;;5060051;28;20186;-50
2021/03/11 01:50:19;;;;;;;45.40;32.40;;;11.50;42.80;;;;;;5057534;28;20037;-54
2021/03/11 01:52:45;;;;;;;43.23;30.93;;;11.50;43.00;;;;;;5057244;28;20383;-48
2021/03/11 01:55:12;;;;;;;47.87;32.50;;;11.50;43.00;;;;;;5060048;28;20032;-48
2021/03/11 01:57:37;;;;;;;44.87;32.57;;;11.50;42.70;;;;;;5061317;28;20475;-50
2021/03/11 02:00:07;;;;;;;46.47;31.70;;;11.60;42.50;;;;;;5056310;28;20041;-49
2021/03/11 02:02:33;;;;;;;44.83;32.23;;;11.60;42.50;;;;;;5060056;28;20045;-49
2021/03/11 02:04:59;;;;;;;41.30;32.20;;;11.50;42.60;;;;;;5050110;28;20072;-48
2021/03/11 02:07:24;;;;;;;42.65;31.85;;;11.60;42.70;;;;;;5055350;28;20060;-50
2021/03/11 02:09:50;;;;;;;44.20;30.80;;;11.50;42.60;;;;;;5054021;28;20044;-51
2021/03/11 02:13:02;;;;;;;44.67;30.23;;;11.60;42.50;;;;;;5053322;28;20086;-49
2021/03/11 02:15:35;;;;;;;44.40;31.92;;;11.50;42.90;;;;;;5006620;28;20124;-49
2021/03/11 02:18:14;;;;;;;41.17;31.00;;;11.50;42.70;;;;;;5061981;28;20082;-48
2021/03/11 02:20:43;;;;;;;41.80;31.47;;;11.50;42.90;;;;;;5051389;28;20063;-52
2021/03/11 02:23:33;;;;;;;46.57;33.43;;;11.50;42.70;;;;;;5053954;28;20071;-49
2021/03/11 02:26:15;;;;;;;42.13;31.63;;;11.70;43.00;;;;;;5021171;28;20535;-48
2021/03/11 02:29:02;;;;;;;42.90;30.87;;;11.70;42.60;;;;;;5063809;28;20366;-49
2021/03/11 02:31:31;;;;;;;46.42;30.88;;;11.70;43.20;;;;;;5028709;28;20043;-53
2021/03/11 02:33:58;;;;;;;44.17;31.17;;;11.60;42.60;;;;;;5063050;28;20094;-49
2021/03/11 02:36:25;;;;;;;47.58;30.83;;;11.60;42.60;;;;;;5059819;28;20039;-48
2021/03/11 02:38:53;;;;;;;46.35;32.03;;;11.60;42.80;;;;;;5059755;28;20049;-51
2021/03/11 02:41:20;;;;;;;39.90;29.13;;;11.60;42.60;;;;;;5057160;28;20070;-53
2021/03/11 02:43:48;;;;;;;43.93;31.20;;;11.60;42.70;;;;;;5063590;28;20040;-49
2021/03/11 02:46:16;;;;;;;49.50;33.23;;;11.60;42.80;;;;;;5052913;28;20032;-48
2021/03/11 02:48:44;;;;;;;43.25;30.77;;;11.60;42.80;;;;;;5059270;28;20044;-53
2021/03/11 02:51:10;;;;;;;44.00;31.63;;;11.60;42.70;;;;;;5058057;28;20119;-50
2021/03/11 02:53:38;;;;;;;43.95;31.90;;;11.50;43.00;;;;;;5059819;28;20130;-53
2021/03/11 02:56:04;;;;;;;44.92;31.15;;;11.50;43.10;;;;;;5056079;28;20055;-54
2021/03/11 02:58:30;;;;;;;44.77;31.80;;;11.40;43.20;;;;;;5060935;28;20498;-48
2021/03/11 03:00:56;;;;;;;44.42;31.90;;;11.30;43.40;;;;;;5058300;28;20058;-51
2021/03/11 03:03:22;;;;;;;41.00;30.50;;;11.30;43.50;;;;;;5052871;28;20154;-50
2021/03/11 03:05:50;;;;;;;45.10;31.47;;;11.30;43.40;;;;;;5070451;28;20047;-55
2021/03/11 03:08:17;;;;;;;43.10;30.70;;;11.20;43.80;;;;;;5060052;28;20154;-51
2021/03/11 03:10:45;;;;;;;44.87;32.07;;;11.20;43.80;;;;;;5058558;28;20106;-51
2021/03/11 03:13:16;;;;;;;44.43;30.73;;;11.20;43.80;;;;;;5054270;28;20040;-49
2021/03/11 03:15:43;;;;;;;41.50;31.47;;;11.20;43.60;;;;;;5061117;28;20120;-49
2021/03/11 03:18:14;;;;;;;43.97;31.40;;;11.10;43.50;;;;;;5056476;28;20036;-54
2021/03/11 03:20:41;;;;;;;42.03;30.70;;;11.10;43.50;;;;;;5062052;28;20041;-52
2021/03/11 03:33:13;;;;;;;44.00;29.73;;;11.00;43.90;;;;;;5015548;28;20532;-52
2021/03/11 03:35:40;;;;;;;44.10;30.03;;;11.00;43.40;;;;;;5054958;28;20080;-48
2021/03/11 03:42:04;;;;;;;42.63;29.13;;;11.00;43.00;;;;;;4990825;28;20052;-49
2021/03/11 03:44:36;;;;;;;39.53;29.17;;;11.00;43.70;;;;;;5028173;28;20037;-53
2021/03/11 03:47:03;;;;;;;39.33;28.67;;;10.90;43.50;;;;;;5057690;28;20142;-52
2021/03/11 03:49:41;;;;;;;42.17;28.70;;;10.90;43.50;;;;;;5052418;28;20048;-51
2021/03/11 03:52:08;;;;;;;40.33;28.73;;;10.90;43.60;;;;;;5061041;28;20044;-51
2021/03/11 03:54:39;;;;;;;37.87;29.40;;;11.00;43.20;;;;;;5054559;28;20052;-49
2021/03/11 03:57:14;;;;;;;37.07;28.13;;;10.90;43.00;;;;;;5065190;28;20043;-50
2021/03/11 04:06:23;;;;;;;43.30;28.07;;;10.80;43.90;;;;;;5028954;28;20089;-54
2021/03/11 04:08:49;;;;;;;44.10;29.83;;;10.80;43.60;;;;;;5056190;28;20060;-52
2021/03/11 04:11:17;;;;;;;43.23;30.23;;;10.80;43.70;;;;;;5055798;28;20498;-50
2021/03/11 04:13:43;;;;;;;43.10;29.37;;;10.80;44.00;;;;;;5059135;28;20044;-49
2021/03/11 04:16:10;;;;;;;43.23;30.13;;;10.70;43.90;;;;;;5052136;28;20044;-50
2021/03/11 04:18:36;;;;;;;48.00;32.07;;;10.70;44.10;;;;;;5077713;28;20057;-51
2021/03/11 04:21:05;;;;;;;41.27;30.47;;;10.70;44.40;;;;;;5055286;28;20040;-49
2021/03/11 04:23:31;;;;;;;40.27;29.87;;;10.70;44.30;;;;;;5056989;28;20405;-50
2021/03/11 04:25:57;;;;;;;47.23;32.20;;;10.60;44.40;;;;;;5055772;28;20048;-51
2021/03/11 04:28:29;;;;;;;45.20;29.93;;;10.60;44.20;;;;;;5054885;28;20053;-51
2021/03/11 04:30:56;;;;;;;40.53;29.17;;;10.70;44.20;;;;;;5057366;28;20193;-50
2021/03/11 04:33:22;;;;;;;49.93;30.43;;;10.70;44.20;;;;;;5056249;28;20410;-49
2021/03/11 04:35:48;;;;;;;41.93;29.13;;;10.70;44.30;;;;;;5056223;28;20067;-49
2021/03/11 04:38:15;;;;;;;43.73;29.03;;;10.70;44.20;;;;;;5058849;28;20110;-50
2021/03/11 04:40:42;;;;;;;44.20;29.70;;;10.70;44.20;;;;;;5049923;28;20043;-52
2021/03/11 04:43:08;;;;;;;40.20;28.57;;;10.70;44.20;;;;;;5059073;28;20049;-53
2021/03/11 04:45:35;;;;;;;43.30;30.57;;;10.60;44.30;;;;;;5051175;28;20046;-50
2021/03/11 04:51:22;;;;;;;44.60;28.50;;;10.70;45.00;;;;;;5007281;28;20039;-50
2021/03/11 04:53:52;;;;;;;39.63;28.93;;;10.60;44.60;;;;;;5060217;28;20119;-51
2021/03/11 04:56:17;;;;;;;39.77;28.53;;;10.60;44.50;;;;;;5056847;28;20111;-50
2021/03/11 04:58:43;;;;;;;40.63;27.27;;;10.60;44.20;;;;;;5058335;28;20116;-51
2021/03/11 05:01:12;;;;;;;44.07;29.43;;;10.60;44.30;;;;;;5050375;28;20128;-52
2021/03/11 05:03:43;;;;;;;43.40;29.53;;;10.60;44.60;;;;;;5054908;28;20033;-53
2021/03/11 05:06:09;;;;;;;43.63;30.40;;;10.60;44.60;;;;;;5070817;28;20086;-49
2021/03/11 05:08:34;;;;;;;41.67;29.10;;;10.60;44.50;;;;;;5054166;28;20486;-48
2021/03/11 05:11:00;;;;;;;44.30;29.83;;;10.60;44.70;;;;;;5058551;28;20417;-49
2021/03/11 05:13:30;;;;;;;43.43;29.63;;;10.60;44.40;;;;;;5053445;28;20053;-49
2021/03/11 05:15:59;;;;;;;43.37;30.70;;;10.50;44.50;;;;;;5056678;28;20044;-51
2021/03/11 05:18:25;;;;;;;49.20;32.57;;;10.60;44.50;;;;;;5056683;28;20068;-52
2021/03/11 05:20:50;;;;;;;43.47;31.00;;;10.60;44.80;;;;;;5057023;28;20067;-53
2021/03/11 05:23:20;;;;;;;49.03;32.23;;;10.50;44.80;;;;;;5054877;28;20090;-53
2021/03/11 05:25:51;;;;;;;48.70;30.90;;;10.50;44.90;;;;;;5080077;28;20488;-54
2021/03/11 05:28:16;;;;;;;48.93;31.73;;;10.50;44.70;;;;;;5069954;28;20033;-52
2021/03/11 05:30:42;;;;;;;46.10;32.17;;;10.50;45.10;;;;;;5060052;28;20040;-48
2021/03/11 05:33:07;;;;;;;42.83;30.00;;;10.50;45.20;;;;;;5053307;28;20037;-51
2021/03/11 05:35:33;;;;;;;44.67;29.87;;;10.40;45.50;;;;;;5061495;28;20095;-48
2021/03/11 05:38:01;;;;;;;41.07;28.97;;;10.50;45.70;;;;;;5058183;28;20094;-48
2021/03/11 05:40:36;;;;;;;44.70;30.50;;;10.40;45.60;;;;;;5060432;28;20045;-49
2021/03/11 05:43:04;;;;;;;46.83;31.07;;;10.50;45.90;;;;;;5058063;28;20355;-49
2021/03/11 05:45:31;;;;;;;46.20;30.27;;;10.60;45.80;;;;;;5062944;28;20032;-48
2021/03/11 05:47:57;;;;;;;46.77;31.10;;;10.50;45.60;;;;;;5060003;28;20056;-50
2021/03/11 05:50:22;;;;;;;44.63;31.63;;;10.60;45.50;;;;;;5060397;28;20044;-51
2021/03/11 05:52:50;;;;;;;46.00;31.83;;;10.50;45.40;;;;;;5061950;28;20032;-54
2021/03/11 05:55:15;;;;;;;41.93;29.87;;;10.60;45.50;;;;;;5063784;28;20075;-52
2021/03/11 05:57:42;;;;;;;45.77;30.87;;;10.70;45.50;;;;;;5043310;28;20037;-49
2021/03/11 06:00:11;;;;;;;45.17;29.87;;;10.60;45.20;;;;;;5058432;28;20036;-50
2021/03/11 06:02:38;;;;;;;54.43;30.47;;;10.70;45.50;;;;;;5058452;28;20044;-48
2021/03/11 06:05:05;;;;;;;42.57;30.50;;;10.60;45.30;;;;;;5056052;28;20059;-52
2021/03/11 06:07:31;;;;;;;46.63;31.20;;;10.60;45.70;;;;;;5064414;28;20032;-53
2021/03/11 06:10:04;;;;;;;45.70;29.83;;;10.70;45.70;;;;;;5059309;28;20082;-50
2021/03/11 06:12:31;;;;;;;47.83;29.50;;;10.70;45.30;;;;;;5059923;28;20032;-52
2021/03/11 06:15:27;;;;;;;42.23;29.00;;;10.80;45.60;;;;;;5060725;28;20409;-53
2021/03/11 06:17:55;;;;;;;42.77;29.30;;;10.90;45.50;;;;;;5060449;28;20059;-50
2021/03/11 06:20:20;;;;;;;42.27;29.27;;;10.80;45.30;;;;;;5060802;28;20029;-49
2021/03/11 06:22:47;;;;;;;45.70;31.33;;;10.80;45.30;;;;;;5062648;28;20123;-51
2021/03/11 06:25:15;;;;;;;43.73;29.77;;;10.60;45.30;;;;;;5057052;28;20040;-53
2021/03/11 06:27:41;;;;;;;43.97;29.77;;;10.80;45.50;;;;;;5059406;28;20048;-53
2021/03/11 06:30:07;;;;;;;45.43;29.30;;;10.90;45.60;;;;;;5053991;28;20028;-55
2021/03/11 06:32:52;;;;;;;43.27;29.70;;;10.90;45.20;;;;;;5056529;28;20075;-54
2021/03/11 06:35:21;;;;;;;41.47;29.40;;;10.90;45.50;;;;;;5054243;28;20089;-53
2021/03/11 06:37:48;;;;;;;43.30;30.20;;;10.90;45.20;;;;;;5060561;28;20402;-52
2021/03/11 06:40:19;;;;;;;44.57;31.60;;;10.90;45.10;;;;;;5054720;28;20052;-53
2021/03/11 06:42:45;;;;;;;42.57;29.43;;;10.90;45.00;;;;;;5061567;28;20037;-49
2021/03/11 06:45:31;;;;;;;46.23;31.07;;;10.80;44.80;;;;;;5053647;28;20041;-49
2021/03/11 06:48:27;;;;;;;45.03;31.47;;;10.80;44.90;;;;;;5040514;28;20124;-50
2021/03/11 06:50:56;;;;;;;37.88;28.83;;;10.80;44.80;;;;;;5055774;28;20040;-51
2021/03/11 06:53:22;;;;;;;44.47;30.80;;;10.90;44.60;;;;;;5054394;28;20045;-53
2021/03/11 06:55:47;;;;;;;39.77;29.50;;;10.80;45.20;;;;;;5054390;28;20039;-49
2021/03/11 06:58:19;;;;;;;42.37;30.23;;;10.90;44.70;;;;;;5062320;28;20047;-50
2021/03/11 07:00:46;;;;;;;43.77;29.20;;;11.00;44.60;;;;;;5052035;28;20097;-54
2021/03/11 07:03:12;;;;;;;42.13;29.37;;;11.00;44.30;;;;;;5057076;28;20033;-52
2021/03/11 07:05:40;;;;;;;41.90;28.33;;;11.00;44.50;;;;;;5056269;28;20047;-54
2021/03/11 07:08:16;;;;;;;41.97;29.03;;;11.00;44.50;;;;;;5057617;28;20029;-51
2021/03/11 07:10:43;;;;;;;45.77;28.97;;;11.10;44.30;;;;;;5062415;28;20028;-53
2021/03/11 07:13:08;;;;;;;45.43;31.03;;;11.10;44.40;;;;;;5061230;28;20033;-52
2021/03/11 07:15:35;;;;;;;48.27;30.03;;;11.10;44.00;;;;;;5060347;28;20055;-50
2021/03/11 07:18:05;;;;;;;43.60;29.53;;;11.10;44.20;;;;;;5049678;28;20033;-53
2021/03/11 07:20:34;;;;;;;44.53;30.07;;;11.20;44.00;;;;;;5071587;28;20029;-52
2021/03/11 07:23:06;;;;;;;45.30;30.40;;;11.20;44.00;;;;;;5057056;28;20402;-52
2021/03/11 07:25:35;;;;;;;45.33;30.03;;;11.30;44.10;;;;;;5059026;28;20043;-53
2021/03/11 07:28:06;;;;;;;43.50;29.00;;;11.20;43.90;;;;;;5058538;28;20037;-50
2021/03/11 07:30:51;;;;;;;47.00;30.83;;;11.20;44.10;;;;;;5061922;28;20040;-52
2021/03/11 07:33:28;;;;;;;55.35;29.35;;;11.10;43.70;;;;;;5054719;28;20044;-52
2021/03/11 07:36:02;;;;;;;42.67;28.27;;;11.20;44.10;;;;;;5058016;28;20041;-54
2021/03/11 07:38:30;;;;;;;45.70;29.77;;;11.20;44.00;;;;;;5048210;28;20043;-53
2021/03/11 07:40:58;;;;;;;43.23;29.17;;;11.40;44.10;;;;;;5061209;28;20436;-55
2021/03/11 07:43:25;;;;;;;41.50;28.37;;;11.30;44.10;;;;;;5049889;28;20044;-51
2021/03/11 07:45:54;;;;;;;43.03;29.57;;;11.30;43.40;;;;;;5058989;28;20389;-52
2021/03/11 07:48:20;;;;;;;39.17;27.97;;;11.20;43.50;;;;;;5061193;28;21331;-54
2021/03/11 07:50:46;;;;;;;46.00;30.87;;;11.30;43.80;;;;;;5063949;28;20064;-53
2021/03/11 07:53:12;;;;;;;41.70;28.40;;;11.30;43.60;;;;;;5074417;28;20048;-53
2021/03/11 07:55:38;;;;;;;45.03;28.57;;;11.40;43.50;;;;;;5061728;28;20032;-52
2021/03/11 07:58:06;;;;;;;46.30;28.73;;;11.40;43.80;;;;;;5054684;28;20040;-52
2021/03/11 08:00:33;;;;;;;47.07;28.60;;;11.30;43.30;;;;;;5055485;28;20040;-51
2021/03/11 08:03:10;;;;;;;46.50;28.93;;;11.30;44.60;;;;;;5055310;28;20033;-51
2021/03/11 08:05:36;;;;;;;47.47;29.10;;;11.30;44.10;;;;;;5064407;28;20413;-50
2021/03/11 08:08:17;;;;;;;46.33;28.23;;;11.40;43.40;;;;;;5054432;28;20051;-53
2021/03/11 08:10:56;;;;;;;42.63;30.17;;;11.40;43.10;;;;;;5061112;28;20036;-53
2021/03/11 08:13:39;;;;;;;46.40;28.77;;;11.30;43.10;;;;;;5052206;28;20048;-52
2021/03/11 08:16:17;;;;;;;41.70;27.95;;;11.40;43.30;;;;;;5060724;28;20509;-49
2021/03/11 08:18:44;;;;;;;45.33;27.55;;;11.40;42.70;;;;;;5057073;28;22213;-55
2021/03/11 08:21:24;;;;;;;48.90;29.83;;;11.50;43.00;;;;;;5057497;28;20044;-50
2021/03/11 08:23:54;;;;;;;47.97;29.65;;;11.50;43.10;;;;;;5065853;28;20048;-52
2021/03/11 08:26:38;;;;;;;49.93;29.93;;;11.50;43.30;;;;;;5059392;28;20043;-52
2021/03/11 08:29:19;;;;;;;46.13;29.33;;;11.60;43.70;;;;;;5052908;28;20127;-53
2021/03/11 08:31:49;;;;;;;53.85;29.13;;;11.70;43.20;;;;;;5054485;28;20457;-50
2021/03/11 08:34:32;;;;;;;51.03;29.00;;;11.50;43.00;;;;;;5052739;28;20064;-50
2021/03/11 08:37:20;;;;;;;46.03;30.20;;;11.60;43.70;;;;;;5022717;28;20040;-55
2021/03/11 08:39:48;;;;;;;42.05;28.80;;;11.70;43.20;;;;;;5049785;28;20374;-51
2021/03/11 08:42:49;;;;;;;46.83;29.30;;;11.60;43.30;;;;;;5058237;28;20414;-53
2021/03/11 08:45:37;;;;;;;53.72;29.52;;;11.80;43.80;;;;;;5029165;28;20059;-50
2021/03/11 08:48:17;;;;;;;51.00;29.33;;;11.80;43.20;;;;;;5045075;28;20049;-55
2021/03/11 08:50:48;;;;;;;45.83;29.08;;;11.80;43.40;;;;;;5052653;28;20049;-55
2021/03/11 08:53:36;;;;;;;46.63;28.77;;;11.70;43.20;;;;;;5057073;28;20382;-51
2021/03/11 08:56:17;;;;;;;48.83;29.23;;;11.80;43.70;;;;;;5036672;28;20482;-52
2021/03/11 08:58:52;;;;;;;43.10;29.17;;;11.90;43.20;;;;;;5064600;28;20040;-53
2021/03/11 09:01:46;;;;;;;43.93;27.67;;;11.80;43.10;;;;;;5054208;28;20091;-53
2021/03/11 09:04:23;;;;;;;39.80;28.40;;;11.80;43.20;;;;;;5022666;28;20498;-51
2021/03/11 09:06:51;;;;;;;45.45;29.08;;;11.70;43.50;;;;;;5060734;28;20162;-54
2021/03/11 09:09:30;;;;;;;42.10;27.30;;;11.80;43.20;;;;;;5062605;28;20493;-54
2021/03/11 09:11:56;;;;;;;45.50;29.70;;;12.00;43.30;;;;;;5037396;28;20044;-53
2021/03/11 09:14:22;;;;;;;44.57;28.97;;;11.90;43.00;;;;;;5057564;28;20131;-51
2021/03/11 09:16:48;;;;;;;45.33;28.90;;;12.10;43.00;;;;;;5059462;28;20048;-50
2021/03/11 09:19:15;;;;;;;44.13;28.83;;;12.30;42.90;;;;;;5065194;28;20025;-50
2021/03/11 09:21:40;;;;;;;56.47;30.83;;;12.40;42.60;;;;;;5057766;28;20040;-54
2021/03/11 09:24:16;;;;;;;42.85;28.67;;;12.50;42.60;;;;;;5060828;28;20028;-53
2021/03/11 09:26:42;;;;;;;46.22;30.25;;;12.60;42.30;;;;;;5052643;28;20083;-54
2021/03/11 09:29:07;;;;;;;47.10;30.25;;;12.50;42.40;;;;;;5063244;28;20080;-52
2021/03/11 09:31:33;;;;;;;40.55;27.70;;;12.50;42.40;;;;;;5063941;28;20048;-52
2021/03/11 09:34:02;;;;;;;43.58;29.88;;;12.50;42.00;;;;;;5062005;28;20044;-53
2021/03/11 09:36:27;;;;;;;47.30;30.25;;;12.70;41.70;;;;;;5060412;28;20037;-50
2021/03/11 09:39:06;;;;;;;44.92;29.15;;;12.80;41.80;;;;;;5064513;28;20043;-51
2021/03/11 09:41:32;;;;;;;45.38;28.85;;;13.00;41.50;;;;;;5063481;28;20513;-54
2021/03/11 09:44:08;;;;;;;47.65;30.25;;;13.00;41.60;;;;;;5058612;28;20086;-54
2021/03/11 09:46:34;;;;;;;41.63;29.75;;;13.20;41.70;;;;;;5058729;28;20048;-51
2021/03/11 09:49:00;;;;;;;45.17;28.45;;;13.20;40.30;;;;;;5058291;28;20040;-53
2021/03/11 09:51:34;;;;;;;51.10;31.98;;;13.40;40.30;;;;;;5063208;28;20517;-51
2021/03/11 09:54:06;;;;;;;46.05;30.63;;;13.60;40.00;;;;;;5053087;28;20173;-56
2021/03/11 09:56:33;;;;;;;44.83;31.88;;;13.60;40.00;;;;;;5058781;28;20044;-54
2021/03/11 09:59:09;;;;;;;48.63;31.13;;;13.60;40.30;;;;;;5054929;28;20580;-50
2021/03/11 10:01:40;;;;;;;41.33;28.15;;;13.80;39.80;;;;;;5056460;28;20494;-54
2021/03/11 10:04:16;;;;;;;45.35;28.90;;;13.80;39.00;;;;;;5058047;28;20048;-51
2021/03/11 10:06:56;;;;;;;46.17;30.50;;;13.70;38.90;;;;;;5059064;28;20045;-50
2021/03/11 10:09:23;;;;;;;50.75;29.55;;;13.80;39.30;;;;;;5032236;28;20106;-51
2021/03/11 10:11:54;;;;;;;46.80;29.85;;;13.90;38.90;;;;;;5062322;28;20058;-50
2021/03/11 10:14:23;;;;;;;42.75;30.73;;;13.90;38.90;;;;;;5056997;28;20102;-50
2021/03/11 10:16:54;;;;;;;45.95;31.27;;;13.90;39.30;;;;;;5063429;28;20032;-50
2021/03/11 10:19:21;;;;;;;45.97;31.02;;;13.90;39.10;;;;;;5056990;28;20052;-49
2021/03/11 10:22:00;;;;;;;44.85;31.50;;;14.00;39.20;;;;;;5060692;28;20074;-54
2021/03/11 10:24:49;;;;;;;51.03;32.13;;;14.00;39.10;;;;;;5036366;28;20040;-50
2021/03/11 10:27:24;;;;;;;50.28;30.80;;;14.20;38.90;;;;;;5054473;28;20393;-50
2021/03/11 10:30:00;;;;;;;43.30;29.95;;;14.30;38.90;;;;;;5059518;28;20509;-56
2021/03/11 10:32:26;;;;;;;46.55;30.13;;;14.30;38.20;;;;;;5050203;28;20045;-49
2021/03/11 10:34:52;;;;;;;40.20;28.70;;;14.40;38.70;;;;;;5054529;28;20106;-53
2021/03/11 10:37:35;;;;;;;45.95;31.15;;;14.30;38.40;;;;;;5057019;28;20032;-53
2021/03/11 10:40:09;;;;;;;45.25;30.90;;;14.30;38.20;;;;;;5033159;28;20119;-49
2021/03/11 10:42:40;;;;;;;45.78;30.73;;;14.30;38.20;;;;;;5059286;28;20061;-50
2021/03/11 10:45:07;;;;;;;46.85;31.23;;;14.20;38.30;;;;;;5053987;28;20545;-55
2021/03/11 10:47:33;;;;;;;49.45;30.92;;;14.30;38.80;;;;;;5057411;28;20053;-53
2021/03/11 10:49:59;;;;;;;51.22;32.25;;;14.10;38.40;;;;;;5055741;28;20143;-49
2021/03/11 10:52:24;;;;;;;54.08;32.55;;;14.20;38.90;;;;;;5061005;28;20069;-53
2021/03/11 10:54:50;;;;;;;44.75;32.05;;;14.30;38.20;;;;;;5057012;28;20601;-57
2021/03/11 10:57:17;;;;;;;48.05;32.35;;;14.30;38.60;;;;;;5063978;28;20025;-54
2021/03/11 10:59:47;;;;;;;47.75;32.95;;;14.20;38.30;;;;;;5075141;28;20478;-51
2021/03/11 11:02:13;;;;;;;47.10;29.95;;;14.30;38.80;;;;;;5059237;28;20096;-52
2021/03/11 11:04:40;;;;;;;45.45;30.13;;;14.20;38.30;;;;;;5060358;28;20036;-54
2021/03/11 11:07:06;;;;;;;49.00;30.98;;;14.20;38.60;;;;;;5054110;28;20064;-53
2021/03/11 11:09:32;;;;;;;44.90;29.40;;;14.20;38.30;;;;;;5059402;28;20058;-55
2021/03/11 11:11:58;;;;;;;43.28;29.38;;;14.30;38.50;;;;;;5035956;28;20494;-54
2021/03/11 11:14:23;;;;;;;41.63;30.45;;;14.40;38.00;;;;;;5046382;28;20056;-55
2021/03/11 11:16:49;;;;;;;47.60;31.85;;;14.50;37.90;;;;;;5049351;28;20036;-55
2021/03/11 11:19:15;;;;;;;49.47;31.30;;;14.70;37.90;;;;;;5058176;28;20499;-55
2021/03/11 11:21:40;;;;;;;40.80;29.30;;;14.80;37.50;;;;;;5056352;28;20129;-53
2021/03/11 11:24:06;;;;;;;45.58;30.92;;;15.10;37.20;;;;;;5057511;28;20045;-50
2021/03/11 11:26:32;;;;;;;50.35;31.08;;;15.20;37.00;;;;;;5068941;28;20063;-49
2021/03/11 11:28:57;;;;;;;48.92;33.22;;;15.40;36.50;;;;;;5057565;28;20041;-55
2021/03/11 11:31:23;;;;;;;48.47;32.30;;;15.30;36.80;;;;;;5071912;28;20082;-50
2021/03/11 11:33:48;;;;;;;47.10;31.27;;;15.40;36.00;;;;;;5063052;28;20052;-50
2021/03/11 11:42:59;;;;;;;48.63;33.47;;;15.90;36.40;;;;;;4982150;28;20142;-50
2021/03/11 11:45:25;;;;;;;53.05;33.75;;;16.00;35.90;;;;;;5059107;28;20045;-56
2021/03/11 11:47:50;;;;;;;50.95;32.90;;;16.00;35.90;;;;;;5050672;28;20571;-55
2021/03/11 11:50:17;;;;;;;45.40;31.58;;;16.00;36.00;;;;;;5060541;28;20106;-49
2021/03/11 11:52:43;;;;;;;44.95;32.08;;;15.90;36.10;;;;;;5050197;28;20029;-50
2021/03/11 11:55:11;;;;;;;47.72;31.85;;;15.70;36.40;;;;;;5054647;28;20032;-50
2021/03/11 11:57:38;;;;;;;46.65;33.53;;;15.70;36.70;;;;;;5055022;28;20409;-51
2021/03/11 12:00:06;;;;;;;42.25;31.60;;;15.60;36.80;;;;;;5059633;28;20340;-51
2021/03/11 12:02:31;;;;;;;51.35;32.97;;;15.50;37.10;;;;;;5051816;28;20039;-52
2021/03/11 12:04:57;;;;;;;47.70;33.05;;;15.40;37.20;;;;;;5060431;28;20458;-53
2021/03/11 12:07:23;;;;;;;44.17;31.73;;;15.30;37.50;;;;;;5050567;28;20547;-52
2021/03/11 12:09:48;;;;;;;51.33;31.70;;;15.10;37.40;;;;;;5059847;28;20037;-55
2021/03/11 12:12:14;;;;;;;50.72;32.88;;;15.20;37.70;;;;;;5052971;28;20047;-50
2021/03/11 12:14:40;;;;;;;46.08;32.40;;;15.00;37.90;;;;;;5054625;28;20047;-49
2021/03/11 12:17:05;;;;;;;53.45;33.88;;;15.00;38.40;;;;;;5055876;28;20051;-51
2021/03/11 12:19:31;;;;;;;50.63;33.40;;;14.90;38.50;;;;;;5050251;28;20418;-54
2021/03/11 12:21:57;;;;;;;43.35;31.33;;;14.90;38.60;;;;;;5060099;28;20040;-53
2021/03/11 12:24:23;;;;;;;44.03;32.88;;;14.80;38.10;;;;;;5050170;28;20048;-50
2021/03/11 12:26:49;;;;;;;44.17;32.38;;;14.90;38.30;;;;;;5072431;28;20044;-49
2021/03/11 12:29:15;;;;;;;45.17;31.92;;;15.10;38.40;;;;;;5045455;28;20032;-57
2021/03/11 12:31:43;;;;;;;48.10;33.67;;;15.10;37.90;;;;;;5061268;28;20131;-62
2021/03/11 12:34:09;;;;;;;49.53;33.08;;;15.20;38.00;;;;;;5052111;28;20524;-59
2021/03/11 12:36:36;;;;;;;47.85;30.48;;;15.20;38.30;;;;;;5060898;28;20076;-59
2021/03/11 12:39:02;;;;;;;45.75;29.48;;;15.30;38.50;;;;;;5050451;28;20055;-59
2021/03/11 12:41:28;;;;;;;45.20;30.17;;;15.20;38.10;;;;;;5063322;28;20024;-55
2021/03/11 12:43:53;;;;;;;45.45;30.08;;;15.10;38.40;;;;;;5051430;28;20057;-54
2021/03/11 12:46:19;;;;;;;42.10;29.20;;;15.00;38.50;;;;;;5062495;28;20033;-51
2021/03/11 12:48:45;;;;;;;41.13;29.10;;;15.10;38.80;;;;;;5053287;28;20512;-53
2021/03/11 12:51:11;;;;;;;40.58;29.17;;;15.10;38.30;;;;;;5053937;28;20049;-55
2021/03/11 12:53:36;;;;;;;43.65;29.17;;;15.00;38.60;;;;;;5045104;28;20511;-54
2021/03/11 12:56:02;;;;;;;43.47;32.60;;;15.20;38.90;;;;;;5052452;28;20115;-59
2021/03/11 12:58:28;;;;;;;47.47;30.92;;;15.30;38.80;;;;;;5053004;28;20056;-57
2021/03/11 13:00:54;;;;;;;43.22;30.20;;;15.30;37.90;;;;;;5052728;28;20048;-55
2021/03/11 13:03:20;;;;;;;43.88;29.40;;;15.10;38.80;;;;;;5058290;28;20093;-55
2021/03/11 13:05:46;;;;;;;41.47;27.40;;;15.10;39.10;;;;;;5051796;28;20145;-55
2021/03/11 13:08:11;;;;;;;45.70;32.47;;;15.20;39.60;;;;;;5059437;28;20052;-55